createdAt,value
2023-05-19T00:07:38.486Z,10.11
2023-05-19T00:17:39.077Z,9.96
2023-05-19T00:27:39.655Z,9.74
2023-05-19T00:37:40.258Z,9.76
2023-05-19T00:47:40.848Z,9.72
2023-05-19T00:57:41.404Z,9.57
2023-05-19T01:07:41.991Z,9.50
2023-05-19T01:17:42.558Z,9.33
2023-05-19T01:27:43.124Z,9.29
2023-05-19T01:37:43.648Z,9.23
2023-05-19T01:47:44.285Z,9.20
2023-05-19T01:57:44.827Z,9.11
2023-05-19T02:07:45.406Z,9.01
2023-05-19T02:17:45.960Z,8.84
2023-05-19T02:27:46.480Z,8.66
2023-05-19T02:37:46.946Z,8.73
2023-05-19T02:47:47.702Z,8.99
2023-05-19T02:57:48.160Z,8.70
2023-05-19T03:07:48.711Z,8.68
2023-05-19T03:17:49.254Z,8.71
2023-05-19T03:27:49.842Z,8.66
2023-05-19T03:37:50.302Z,8.73
2023-05-19T03:47:51.064Z,8.87
2023-05-19T03:57:51.510Z,9.10
2023-05-19T04:07:52.072Z,9.18
2023-05-19T04:17:52.591Z,9.57
2023-05-19T04:27:53.109Z,9.47
2023-05-19T04:37:53.608Z,9.87
2023-05-19T04:47:54.225Z,10.53
2023-05-19T04:57:54.666Z,11.24
2023-05-19T05:07:55.189Z,12.35
2023-05-19T05:17:55.714Z,12.56
2023-05-19T05:27:56.214Z,12.65
2023-05-19T05:37:56.694Z,12.13
2023-05-19T05:48:04.368Z,12.09
2023-05-19T05:57:57.905Z,12.50
2023-05-19T06:07:58.394Z,13.10
2023-05-19T06:17:59.292Z,13.23
2023-05-19T06:27:59.884Z,13.12
2023-05-19T06:38:00.439Z,13.29
2023-05-19T06:48:00.960Z,13.46
2023-05-19T06:58:01.445Z,13.71
2023-05-19T07:08:01.971Z,14.04
2023-05-19T07:18:02.484Z,14.14
2023-05-19T07:28:03.000Z,14.75
2023-05-19T07:38:03.482Z,15.35
2023-05-19T07:48:04.141Z,15.64
2023-05-19T07:58:05.367Z,15.68
2023-05-19T08:08:05.395Z,16.11
2023-05-19T08:18:05.965Z,16.21
2023-05-19T08:28:06.590Z,16.15
2023-05-19T08:38:07.045Z,16.39
2023-05-19T08:48:07.619Z,16.83
2023-05-19T08:58:08.085Z,16.85
2023-05-19T09:08:08.596Z,17.07
2023-05-19T09:18:09.128Z,17.30
2023-05-19T09:28:09.630Z,17.55
2023-05-19T09:38:10.109Z,17.77
2023-05-19T09:48:10.663Z,18.00
2023-05-19T09:58:12.662Z,17.99
2023-05-19T10:08:11.776Z,18.23
2023-05-19T10:18:12.282Z,17.78
2023-05-19T10:28:12.872Z,17.84
2023-05-19T10:38:13.332Z,18.36
2023-05-19T10:48:13.877Z,17.87
2023-05-19T10:58:14.353Z,17.95
2023-05-19T11:08:14.910Z,18.27
2023-05-19T11:18:15.387Z,18.60
2023-05-19T11:28:15.897Z,18.35
2023-05-19T11:38:16.363Z,18.76
2023-05-19T11:48:24.070Z,18.39
2023-05-19T11:58:17.638Z,19.23
2023-05-19T12:08:18.135Z,19.66
2023-05-19T12:18:18.616Z,19.13
2023-05-19T12:28:19.129Z,18.73
2023-05-19T12:38:19.619Z,19.62
2023-05-19T12:48:20.280Z,19.29
2023-05-19T12:58:20.742Z,18.87
2023-05-19T13:08:21.249Z,19.07
2023-05-19T13:18:21.724Z,19.10
2023-05-19T13:28:22.258Z,19.22
2023-05-19T13:38:22.737Z,18.85
2023-05-19T13:48:23.369Z,18.65
2023-05-19T13:58:23.865Z,18.69
2023-05-19T14:08:24.380Z,18.73
2023-05-19T14:18:24.861Z,18.12
2023-05-19T14:28:25.379Z,18.27
2023-05-19T14:38:27.506Z,18.76
2023-05-19T14:48:26.669Z,18.81
2023-05-19T14:58:29.224Z,18.63
2023-05-19T15:08:28.061Z,18.54
2023-05-19T15:18:28.504Z,18.20
2023-05-19T15:28:29.020Z,17.96
2023-05-19T15:38:30.616Z,17.79
2023-05-19T15:48:30.196Z,17.93
2023-05-19T15:58:30.671Z,17.99
2023-05-19T16:08:31.301Z,18.10
2023-05-19T16:18:31.735Z,18.02
2023-05-19T16:28:32.277Z,17.74
2023-05-19T16:38:32.753Z,17.48
2023-05-19T16:48:33.285Z,17.28
2023-05-19T16:58:33.757Z,17.18
2023-05-19T17:08:34.276Z,17.06
2023-05-19T17:18:34.749Z,16.88
2023-05-19T17:28:35.257Z,16.79
2023-05-19T17:38:35.735Z,16.73
2023-05-19T17:48:36.348Z,16.78
2023-05-19T17:58:36.927Z,16.78
2023-05-19T18:08:37.444Z,16.58
2023-05-19T18:18:37.969Z,16.39
2023-05-19T18:28:38.473Z,16.20
2023-05-19T18:38:38.969Z,16.05
2023-05-19T18:48:39.506Z,15.90
2023-05-19T18:58:39.977Z,15.71
2023-05-19T19:08:40.520Z,15.56
2023-05-19T19:18:41.118Z,15.36
2023-05-19T19:28:41.660Z,15.23
2023-05-19T19:38:42.146Z,15.11
2023-05-19T19:48:42.656Z,14.96
2023-05-19T19:58:43.195Z,14.84
2023-05-19T20:08:43.786Z,14.68
2023-05-19T20:18:44.349Z,14.55
2023-05-19T20:28:44.892Z,14.47
2023-05-19T20:38:45.440Z,14.39
2023-05-19T20:48:46.028Z,14.33
2023-05-19T20:58:46.533Z,14.27
2023-05-19T21:08:47.103Z,14.03
2023-05-19T21:18:47.730Z,13.92
2023-05-19T21:28:48.302Z,13.75
2023-05-19T21:38:48.835Z,13.75
2023-05-19T21:48:49.388Z,13.70
2023-05-19T21:58:49.897Z,13.46
2023-05-19T22:08:50.481Z,13.36
2023-05-19T22:18:51.064Z,13.11
2023-05-19T22:28:51.591Z,12.96
2023-05-19T22:38:59.150Z,12.89
2023-05-19T22:48:52.862Z,12.62
2023-05-19T22:58:53.624Z,12.49
2023-05-19T23:08:54.169Z,12.29
2023-05-19T23:18:54.686Z,12.14
2023-05-19T23:28:55.273Z,12.24
2023-05-19T23:38:55.807Z,12.29
2023-05-19T23:48:56.404Z,12.19
2023-05-19T23:58:56.961Z,12.01
